createdAt,value
2022-11-15T00:00:10.650Z,78.00
2022-11-15T00:01:10.653Z,78.60
2022-11-15T00:02:10.667Z,75.50
2022-11-15T00:03:10.623Z,74.00
2022-11-15T00:04:10.608Z,75.20
2022-11-15T00:05:10.600Z,72.70
2022-11-15T00:06:10.593Z,75.50
2022-11-15T00:07:17.948Z,77.50
2022-11-15T00:08:10.600Z,75.50
2022-11-15T00:09:10.560Z,74.50
2022-11-15T00:10:10.549Z,72.90
2022-11-15T00:11:10.535Z,73.70
2022-11-15T00:12:10.522Z,76.10
2022-11-15T00:13:10.512Z,74.70
2022-11-15T00:14:10.503Z,77.50
2022-11-15T00:15:10.491Z,76.40
2022-11-15T00:16:10.478Z,75.20
2022-11-15T00:17:10.466Z,77.30
2022-11-15T00:18:10.457Z,76.10
2022-11-15T00:19:10.447Z,81.20
2022-11-15T00:20:10.437Z,79.90
2022-11-15T00:21:10.421Z,74.90
2022-11-15T00:22:10.412Z,73.70
2022-11-15T00:23:10.405Z,73.70
2022-11-15T00:24:10.394Z,76.20
2022-11-15T00:25:10.381Z,75.20
2022-11-15T00:26:10.371Z,76.90
2022-11-15T00:27:10.362Z,76.50
2022-11-15T00:28:10.346Z,78.10
2022-11-15T00:29:10.338Z,74.80
2022-11-15T00:30:10.328Z,80.90
2022-11-15T00:31:10.314Z,79.00
2022-11-15T00:32:10.300Z,76.20
2022-11-15T00:33:10.290Z,75.90
2022-11-15T00:34:10.279Z,77.30
2022-11-15T00:35:10.274Z,79.10
2022-11-15T00:36:10.254Z,75.20
2022-11-15T00:37:10.248Z,75.40
2022-11-15T00:38:10.238Z,80.90
2022-11-15T00:39:10.228Z,75.70
2022-11-15T00:40:10.234Z,75.90
2022-11-15T00:41:10.420Z,74.20
2022-11-15T00:42:10.191Z,77.00
2022-11-15T00:43:10.175Z,79.60
2022-11-15T00:44:10.170Z,78.00
2022-11-15T00:45:10.156Z,76.10
2022-11-15T00:46:10.146Z,76.40
2022-11-15T00:47:10.134Z,74.60
2022-11-15T00:48:10.124Z,79.80
2022-11-15T00:49:10.232Z,75.60
2022-11-15T00:50:14.848Z,79.30
2022-11-15T00:51:10.105Z,77.80
2022-11-15T00:52:10.079Z,76.70
2022-11-15T00:53:10.069Z,78.50
2022-11-15T00:54:10.060Z,75.90
2022-11-15T00:55:10.047Z,78.20
2022-11-15T00:56:10.033Z,78.20
2022-11-15T00:57:10.028Z,79.90
2022-11-15T00:58:10.010Z,79.00
2022-11-15T00:59:10.001Z,80.30
2022-11-15T01:00:09.991Z,81.00
2022-11-15T01:01:10.045Z,78.80
2022-11-15T01:02:09.967Z,81.10
2022-11-15T01:03:09.958Z,78.70
2022-11-15T01:04:09.943Z,76.40
2022-11-15T01:05:09.933Z,80.40
2022-11-15T01:06:09.924Z,78.10
2022-11-15T01:07:09.948Z,76.70
2022-11-15T01:08:09.900Z,82.10
2022-11-15T01:09:09.898Z,79.20
2022-11-15T01:10:09.878Z,82.50
2022-11-15T01:11:09.862Z,80.70
2022-11-15T01:12:09.859Z,78.80
2022-11-15T01:13:09.853Z,78.40
2022-11-15T01:14:09.840Z,76.00
2022-11-15T01:15:09.839Z,79.70
2022-11-15T01:16:09.809Z,85.80
2022-11-15T01:17:09.797Z,80.70
2022-11-15T01:18:09.787Z,81.20
2022-11-15T01:19:09.777Z,83.10
2022-11-15T01:20:09.766Z,82.70
2022-11-15T01:21:09.754Z,81.00
2022-11-15T01:22:09.742Z,81.40
2022-11-15T01:23:09.732Z,84.70
2022-11-15T01:24:09.721Z,80.70
2022-11-15T01:25:09.709Z,83.10
2022-11-15T01:26:09.697Z,86.40
2022-11-15T01:27:09.699Z,83.10
2022-11-15T01:28:09.674Z,81.40
2022-11-15T01:29:09.667Z,83.40
2022-11-15T01:30:09.660Z,82.60
2022-11-15T01:31:09.642Z,83.60
2022-11-15T01:32:09.627Z,84.30
2022-11-15T01:33:09.619Z,83.90
2022-11-15T01:34:09.608Z,84.70
2022-11-15T01:35:09.599Z,83.60
2022-11-15T01:36:09.586Z,85.90
2022-11-15T01:37:09.578Z,83.50
2022-11-15T01:38:09.562Z,81.60
2022-11-15T01:39:09.553Z,83.90
2022-11-15T01:40:09.539Z,81.80
2022-11-15T01:41:09.530Z,80.20
2022-11-15T01:42:09.522Z,80.10
2022-11-15T01:43:09.508Z,79.90
2022-11-15T01:44:09.502Z,81.10
2022-11-15T01:45:09.486Z,79.80
2022-11-15T01:46:09.473Z,81.00
2022-11-15T01:47:09.464Z,79.80
2022-11-15T01:48:09.451Z,82.20
2022-11-15T01:49:09.445Z,82.50
2022-11-15T01:50:09.452Z,82.00
2022-11-15T01:51:09.419Z,79.00
2022-11-15T01:52:09.406Z,80.60
2022-11-15T01:53:09.396Z,80.90
2022-11-15T01:54:09.385Z,78.00
2022-11-15T01:55:09.379Z,76.10
2022-11-15T01:56:09.361Z,77.90
2022-11-15T01:57:09.352Z,77.50
2022-11-15T01:58:09.340Z,76.80
2022-11-15T01:59:09.330Z,77.70
2022-11-15T02:00:09.320Z,78.20
2022-11-15T02:01:09.510Z,77.60
2022-11-15T02:02:09.294Z,77.00
2022-11-15T02:03:09.287Z,76.60
2022-11-15T02:04:09.273Z,78.00
2022-11-15T02:05:09.258Z,77.90
2022-11-15T02:06:09.252Z,76.80
2022-11-15T02:07:09.285Z,77.30
2022-11-15T02:08:09.229Z,75.40
2022-11-15T02:09:09.219Z,76.50
2022-11-15T02:10:09.211Z,78.60
2022-11-15T02:11:09.197Z,75.80
2022-11-15T02:12:09.188Z,78.80
2022-11-15T02:13:09.180Z,78.60
2022-11-15T02:14:09.162Z,75.50
2022-11-15T02:15:09.150Z,76.00
2022-11-15T02:16:09.145Z,73.70
2022-11-15T02:17:09.130Z,76.50
2022-11-15T02:18:09.119Z,74.80
2022-11-15T02:19:09.113Z,72.50
2022-11-15T02:20:09.095Z,76.30
2022-11-15T02:21:09.084Z,76.30
2022-11-15T02:22:09.074Z,76.60
2022-11-15T02:23:09.065Z,75.10
2022-11-15T02:24:09.053Z,77.30
2022-11-15T02:25:09.041Z,76.80
2022-11-15T02:26:09.029Z,78.20
2022-11-15T02:27:09.019Z,76.20
2022-11-15T02:28:09.004Z,75.90
2022-11-15T02:29:08.993Z,76.80
2022-11-15T02:30:08.987Z,76.00
2022-11-15T02:31:08.977Z,76.90
2022-11-15T02:32:08.962Z,76.00
2022-11-15T02:33:08.950Z,77.00
2022-11-15T02:34:08.943Z,76.80
2022-11-15T02:35:08.929Z,78.80
2022-11-15T02:36:08.917Z,78.50
2022-11-15T02:37:08.908Z,78.50
2022-11-15T02:38:08.901Z,78.70
2022-11-15T02:39:08.886Z,77.80
2022-11-15T02:40:08.875Z,77.10
2022-11-15T02:41:08.861Z,77.80
2022-11-15T02:42:08.853Z,75.10
2022-11-15T02:43:08.840Z,77.70
2022-11-15T02:44:08.830Z,76.80
2022-11-15T02:45:08.862Z,78.50
2022-11-15T02:46:08.804Z,82.50
2022-11-15T02:47:08.796Z,80.50
2022-11-15T02:48:08.782Z,79.00
2022-11-15T02:49:08.775Z,78.30
2022-11-15T02:50:08.759Z,79.50
2022-11-15T02:51:08.750Z,80.20
2022-11-15T02:52:08.737Z,82.70
2022-11-15T02:53:08.723Z,81.50
2022-11-15T02:54:08.714Z,78.00
2022-11-15T02:55:08.707Z,78.80
2022-11-15T02:56:08.692Z,79.70
2022-11-15T02:57:08.681Z,79.50
2022-11-15T02:58:08.683Z,81.40
2022-11-15T02:59:08.660Z,81.30
2022-11-15T03:00:08.649Z,80.30
2022-11-15T03:01:08.687Z,78.50
2022-11-15T03:02:08.631Z,79.70
2022-11-15T03:03:08.620Z,78.70
2022-11-15T03:04:08.604Z,77.20
2022-11-15T03:05:08.594Z,79.40
2022-11-15T03:06:08.584Z,76.60
2022-11-15T03:07:08.609Z,75.70
2022-11-15T03:08:08.558Z,76.10
2022-11-15T03:09:08.548Z,77.80
2022-11-15T03:10:08.562Z,77.40
2022-11-15T03:11:08.536Z,75.70
2022-11-15T03:12:08.513Z,76.00
2022-11-15T03:13:08.502Z,75.90
2022-11-15T03:14:08.499Z,75.70
2022-11-15T03:15:08.480Z,76.30
2022-11-15T03:16:08.465Z,75.80
2022-11-15T03:17:08.457Z,79.50
2022-11-15T03:18:08.447Z,78.10
2022-11-15T03:19:08.436Z,77.10
2022-11-15T03:20:08.428Z,77.00
2022-11-15T03:21:08.412Z,76.20
2022-11-15T03:22:08.402Z,74.50
2022-11-15T03:23:08.388Z,74.50
2022-11-15T03:24:08.384Z,81.50
2022-11-15T03:25:08.365Z,77.80
2022-11-15T03:26:08.356Z,78.60
2022-11-15T03:27:08.347Z,77.30
2022-11-15T03:28:08.336Z,78.30
2022-11-15T03:29:08.320Z,77.70
2022-11-15T03:30:08.311Z,79.80
2022-11-15T03:31:08.300Z,79.90
2022-11-15T03:32:08.287Z,78.60
2022-11-15T03:33:08.276Z,75.60
2022-11-15T03:34:08.265Z,75.70
2022-11-15T03:35:08.255Z,77.10
2022-11-15T03:36:08.241Z,76.90
2022-11-15T03:37:08.233Z,77.10
2022-11-15T03:38:08.245Z,75.60
2022-11-15T03:39:08.209Z,76.80
2022-11-15T03:40:08.196Z,76.40
2022-11-15T03:41:08.186Z,74.60
2022-11-15T03:42:08.184Z,76.10
2022-11-15T03:43:08.162Z,73.90
2022-11-15T03:44:08.153Z,79.20
2022-11-15T03:45:08.150Z,75.30
2022-11-15T03:46:08.134Z,75.20
2022-11-15T03:47:08.118Z,76.20
2022-11-15T03:48:08.108Z,77.60
2022-11-15T03:49:08.094Z,78.30
2022-11-15T03:50:08.084Z,75.80
2022-11-15T03:51:08.078Z,76.80
2022-11-15T03:52:08.062Z,75.80
2022-11-15T03:53:08.056Z,75.60
2022-11-15T03:54:08.042Z,75.40
2022-11-15T03:55:08.031Z,75.10
2022-11-15T03:56:08.018Z,75.20
2022-11-15T03:57:08.006Z,75.60
2022-11-15T03:58:07.997Z,73.10
2022-11-15T03:59:07.989Z,72.70
2022-11-15T04:00:07.970Z,73.40
2022-11-15T04:01:07.988Z,73.40
2022-11-15T04:02:07.951Z,74.20
2022-11-15T04:03:07.938Z,73.30
2022-11-15T04:04:07.926Z,72.60
2022-11-15T04:05:07.915Z,75.60
2022-11-15T04:06:07.907Z,75.80
2022-11-15T04:07:07.931Z,71.30
2022-11-15T04:08:07.900Z,73.00
2022-11-15T04:09:07.870Z,70.00
2022-11-15T04:10:07.859Z,69.60
2022-11-15T04:11:07.847Z,70.10
2022-11-15T04:12:07.890Z,70.40
2022-11-15T04:13:07.825Z,71.60
2022-11-15T04:14:07.821Z,67.90
2022-11-15T04:15:07.830Z,70.50
2022-11-15T04:16:07.791Z,71.90
2022-11-15T04:17:07.773Z,66.70
2022-11-15T04:18:07.768Z,67.30
2022-11-15T04:19:07.757Z,68.50
2022-11-15T04:20:07.763Z,69.80
2022-11-15T04:21:07.730Z,69.00
2022-11-15T04:22:07.723Z,68.70
2022-11-15T04:23:07.713Z,67.70
2022-11-15T04:24:07.700Z,68.50
2022-11-15T04:25:07.721Z,71.40
2022-11-15T04:26:07.678Z,74.80
2022-11-15T04:27:07.669Z,71.40
2022-11-15T04:28:07.658Z,73.50
2022-11-15T04:29:07.647Z,72.90
2022-11-15T04:30:07.633Z,72.20
2022-11-15T04:31:07.624Z,71.20
2022-11-15T04:32:07.615Z,71.40
2022-11-15T04:33:07.605Z,70.90
2022-11-15T04:34:07.591Z,69.20
2022-11-15T04:35:07.589Z,70.50
2022-11-15T04:36:07.569Z,70.50
2022-11-15T04:37:07.570Z,70.30
2022-11-15T04:38:07.557Z,72.30
2022-11-15T04:39:07.533Z,71.20
2022-11-15T04:40:07.526Z,72.20
2022-11-15T04:41:07.510Z,69.70
2022-11-15T04:42:07.501Z,68.80
2022-11-15T04:43:07.487Z,71.00
2022-11-15T04:44:07.480Z,71.80
2022-11-15T04:45:07.463Z,72.10
2022-11-15T04:46:07.459Z,73.00
2022-11-15T04:47:07.445Z,73.00
2022-11-15T04:48:07.430Z,71.60
2022-11-15T04:49:07.430Z,72.30
2022-11-15T04:50:07.413Z,73.50
2022-11-15T04:51:07.396Z,72.00
2022-11-15T04:52:07.384Z,73.30
2022-11-15T04:53:07.376Z,74.10
2022-11-15T04:54:07.371Z,72.40
2022-11-15T04:55:08.450Z,71.40
2022-11-15T04:56:07.341Z,71.20
2022-11-15T04:57:07.359Z,71.60
2022-11-15T04:58:07.320Z,70.40
2022-11-15T04:59:07.304Z,71.70
2022-11-15T05:00:07.296Z,71.00
2022-11-15T05:01:07.407Z,70.40
2022-11-15T05:02:07.274Z,69.50
2022-11-15T05:03:07.275Z,70.60
2022-11-15T05:04:07.256Z,71.30
2022-11-15T05:05:07.241Z,71.20
2022-11-15T05:06:07.233Z,71.20
2022-11-15T05:07:07.253Z,74.00
2022-11-15T05:08:07.206Z,72.00
2022-11-15T05:09:07.194Z,72.00
2022-11-15T05:10:07.186Z,71.20
2022-11-15T05:11:07.169Z,68.60
2022-11-15T05:12:07.162Z,70.00
2022-11-15T05:13:07.152Z,69.70
2022-11-15T05:14:07.160Z,70.00
2022-11-15T05:15:07.130Z,66.90
2022-11-15T05:16:07.116Z,67.70
2022-11-15T05:17:07.113Z,70.60
2022-11-15T05:18:07.098Z,68.60
2022-11-15T05:19:07.083Z,68.60
2022-11-15T05:20:07.072Z,65.40
2022-11-15T05:21:07.060Z,66.80
2022-11-15T05:22:07.051Z,68.10
2022-11-15T05:23:07.036Z,70.20
2022-11-15T05:24:07.027Z,67.60
2022-11-15T05:25:07.015Z,66.30
2022-11-15T05:26:09.339Z,67.60
2022-11-15T05:27:07.031Z,67.00
2022-11-15T05:28:07.012Z,66.40
2022-11-15T05:29:06.972Z,69.30
2022-11-15T05:30:06.961Z,67.20
2022-11-15T05:31:06.952Z,67.20
2022-11-15T05:32:06.938Z,66.10
2022-11-15T05:33:06.926Z,66.10
2022-11-15T05:34:06.918Z,66.80
2022-11-15T05:35:06.910Z,66.40
2022-11-15T05:36:06.892Z,68.10
2022-11-15T05:37:06.883Z,68.20
2022-11-15T05:38:06.870Z,70.10
2022-11-15T05:39:08.918Z,66.40
2022-11-15T05:40:06.846Z,67.60
2022-11-15T05:41:06.840Z,67.70
2022-11-15T05:42:06.825Z,67.20
2022-11-15T05:43:06.815Z,68.00
2022-11-15T05:44:06.862Z,66.50
2022-11-15T05:45:06.868Z,65.80
2022-11-15T05:46:06.784Z,65.30
2022-11-15T05:47:06.768Z,66.70
2022-11-15T05:48:06.752Z,66.60
2022-11-15T05:49:06.747Z,68.50
2022-11-15T05:50:06.736Z,72.10
2022-11-15T05:51:06.726Z,72.20
2022-11-15T05:52:06.712Z,72.10
2022-11-15T05:53:06.701Z,72.70
2022-11-15T05:54:06.699Z,70.80
2022-11-15T05:55:06.686Z,73.20
2022-11-15T05:56:06.670Z,67.80
2022-11-15T05:57:06.656Z,67.40
2022-11-15T05:58:06.644Z,63.40
2022-11-15T05:59:06.634Z,69.00
2022-11-15T06:00:06.617Z,69.90
2022-11-15T06:01:06.610Z,66.90
2022-11-15T06:02:06.664Z,68.30
2022-11-15T06:03:06.588Z,68.90
2022-11-15T06:04:06.576Z,68.90
2022-11-15T06:05:06.568Z,67.50
2022-11-15T06:06:06.588Z,70.10
2022-11-15T06:07:06.575Z,66.30
2022-11-15T06:08:06.530Z,65.50
2022-11-15T06:09:06.531Z,65.50
2022-11-15T06:10:06.510Z,68.10
2022-11-15T06:11:06.500Z,68.90
2022-11-15T06:12:06.490Z,68.00
2022-11-15T06:13:06.474Z,68.70
2022-11-15T06:14:06.466Z,68.40
2022-11-15T06:15:06.448Z,66.70
2022-11-15T06:16:06.438Z,67.90
2022-11-15T06:17:11.131Z,70.60
2022-11-15T06:18:06.417Z,71.30
2022-11-15T06:19:06.420Z,69.30
2022-11-15T06:20:06.396Z,70.80
2022-11-15T06:21:06.383Z,70.50
2022-11-15T06:22:06.372Z,72.40
2022-11-15T06:23:06.365Z,66.10
2022-11-15T06:24:06.348Z,67.50
2022-11-15T06:25:06.338Z,67.80
2022-11-15T06:26:06.325Z,67.00
2022-11-15T06:27:06.314Z,68.50
2022-11-15T06:28:06.303Z,66.10
2022-11-15T06:29:06.294Z,69.70
2022-11-15T06:30:06.281Z,71.80
2022-11-15T06:31:06.269Z,70.20
2022-11-15T06:32:06.265Z,71.00
2022-11-15T06:33:06.246Z,73.20
2022-11-15T06:34:06.240Z,72.90
2022-11-15T06:35:06.224Z,75.60
2022-11-15T06:36:06.220Z,73.10
2022-11-15T06:37:06.197Z,72.40
2022-11-15T06:38:06.191Z,65.00
2022-11-15T06:39:06.181Z,67.00
2022-11-15T06:40:06.165Z,67.30
2022-11-15T06:41:06.159Z,69.00
2022-11-15T06:42:06.146Z,71.30
2022-11-15T06:43:06.131Z,69.40
2022-11-15T06:44:06.120Z,69.20
2022-11-15T06:45:06.108Z,72.50
2022-11-15T06:46:06.097Z,70.80
2022-11-15T06:47:06.087Z,72.70
2022-11-15T06:48:06.073Z,74.20
2022-11-15T06:49:09.575Z,73.50
2022-11-15T06:50:06.053Z,69.60
2022-11-15T06:51:06.059Z,69.40
2022-11-15T06:52:06.029Z,67.90
2022-11-15T06:53:06.017Z,68.20
2022-11-15T06:54:06.008Z,70.00
2022-11-15T06:55:05.998Z,71.00
2022-11-15T06:56:05.983Z,70.50
2022-11-15T06:57:05.972Z,71.60
2022-11-15T06:58:05.959Z,70.20
2022-11-15T06:59:05.951Z,71.00
2022-11-15T07:00:05.940Z,72.50
2022-11-15T07:01:05.999Z,70.60
2022-11-15T07:02:05.915Z,71.30
2022-11-15T07:03:05.904Z,69.20
2022-11-15T07:04:05.892Z,70.60
2022-11-15T07:05:05.880Z,70.40
2022-11-15T07:06:07.747Z,66.60
2022-11-15T07:07:05.908Z,67.60
2022-11-15T07:08:05.848Z,70.30
2022-11-15T07:09:05.837Z,67.60
2022-11-15T07:10:05.822Z,66.10
2022-11-15T07:11:05.815Z,64.70
2022-11-15T07:12:07.917Z,62.80
2022-11-15T07:13:05.790Z,66.70
2022-11-15T07:14:05.785Z,64.90
2022-11-15T07:15:05.772Z,62.80
2022-11-15T07:16:05.757Z,62.70
2022-11-15T07:17:05.745Z,64.40
2022-11-15T07:18:05.736Z,63.10
2022-11-15T07:19:05.731Z,64.70
2022-11-15T07:20:05.711Z,62.20
2022-11-15T07:21:05.700Z,64.10
2022-11-15T07:22:05.688Z,60.10
2022-11-15T07:23:05.677Z,62.00
2022-11-15T07:24:05.663Z,64.00
2022-11-15T07:25:05.650Z,63.50
2022-11-15T07:26:05.717Z,62.10
2022-11-15T07:27:05.634Z,63.30
2022-11-15T07:28:05.620Z,62.80
2022-11-15T07:29:05.610Z,62.30
2022-11-15T07:30:05.601Z,61.40
2022-11-15T07:31:05.591Z,60.80
2022-11-15T07:32:05.585Z,61.40
2022-11-15T07:33:05.565Z,60.70
2022-11-15T07:34:05.558Z,60.30
2022-11-15T07:35:05.546Z,61.90
2022-11-15T07:36:05.535Z,60.70
2022-11-15T07:37:05.536Z,58.30
2022-11-15T07:38:05.511Z,57.00
2022-11-15T07:39:05.499Z,55.80
2022-11-15T07:40:05.491Z,56.20
2022-11-15T07:41:05.477Z,56.30
2022-11-15T07:42:05.467Z,55.50
2022-11-15T07:43:05.455Z,54.70
2022-11-15T07:44:05.445Z,54.30
2022-11-15T07:45:05.433Z,53.40
2022-11-15T07:46:05.434Z,53.50
2022-11-15T07:47:05.418Z,52.40
2022-11-15T07:48:05.401Z,52.10
2022-11-15T07:49:05.388Z,52.90
2022-11-15T07:50:05.378Z,52.40
2022-11-15T07:51:08.788Z,52.40
2022-11-15T07:52:05.358Z,52.20
2022-11-15T07:53:05.345Z,52.90
2022-11-15T07:54:05.374Z,52.50
2022-11-15T07:55:05.332Z,53.70
2022-11-15T07:56:05.311Z,52.30
2022-11-15T07:57:07.534Z,52.80
2022-11-15T07:58:05.294Z,53.00
2022-11-15T07:59:05.281Z,52.20
2022-11-15T08:00:05.281Z,52.20
2022-11-15T08:01:05.451Z,50.60
2022-11-15T08:02:05.361Z,50.00
2022-11-15T08:03:05.241Z,49.80
2022-11-15T08:04:05.224Z,49.50
2022-11-15T08:05:05.226Z,49.40
2022-11-15T08:06:05.203Z,49.40
2022-11-15T08:07:05.232Z,48.30
2022-11-15T08:08:05.190Z,47.00
2022-11-15T08:09:05.172Z,46.50
2022-11-15T08:10:05.240Z,46.10
2022-11-15T08:11:05.169Z,45.40
2022-11-15T08:12:05.146Z,43.10
2022-11-15T08:13:05.178Z,42.60
2022-11-15T08:14:05.124Z,41.50
2022-11-15T08:15:05.113Z,41.90
2022-11-15T08:16:05.098Z,43.10
2022-11-15T08:17:05.093Z,42.20
2022-11-15T08:18:05.074Z,40.60
2022-11-15T08:19:05.071Z,42.40
2022-11-15T08:20:05.060Z,42.60
2022-11-15T08:21:05.041Z,42.60
2022-11-15T08:22:05.034Z,42.30
2022-11-15T08:23:05.023Z,41.80
2022-11-15T08:24:05.013Z,42.90
2022-11-15T08:25:05.009Z,43.10
2022-11-15T08:26:05.003Z,41.60
2022-11-15T08:27:05.060Z,40.80
2022-11-15T08:28:04.970Z,40.40
2022-11-15T08:29:04.960Z,41.20
2022-11-15T08:30:04.953Z,40.30
2022-11-15T08:31:04.937Z,41.60
2022-11-15T08:32:04.929Z,41.20
2022-11-15T08:33:04.923Z,40.30
2022-11-15T08:34:04.910Z,40.70
2022-11-15T08:35:04.901Z,40.10
2022-11-15T08:36:04.882Z,40.80
2022-11-15T08:37:04.872Z,38.80
2022-11-15T08:38:04.880Z,39.10
2022-11-15T08:39:04.855Z,38.20
2022-11-15T08:40:04.848Z,37.80
2022-11-15T08:41:04.847Z,36.70
2022-11-15T08:42:04.827Z,36.90
2022-11-15T08:43:04.817Z,37.20
2022-11-15T08:44:04.805Z,35.40
2022-11-15T08:45:04.793Z,35.60
2022-11-15T08:46:04.785Z,34.80
2022-11-15T08:47:04.774Z,35.20
2022-11-15T08:48:04.766Z,34.10
2022-11-15T08:49:04.754Z,32.70
2022-11-15T08:50:04.749Z,33.70
2022-11-15T08:51:04.856Z,33.60
2022-11-15T08:52:04.722Z,33.70
2022-11-15T08:53:04.712Z,33.50
2022-11-15T08:54:04.707Z,32.50
2022-11-15T08:55:04.690Z,35.00
2022-11-15T08:56:04.681Z,34.90
2022-11-15T08:57:04.672Z,35.50
2022-11-15T08:58:04.665Z,34.00
2022-11-15T08:59:04.652Z,30.80
2022-11-15T09:00:04.652Z,29.90
2022-11-15T09:01:04.683Z,29.60
2022-11-15T09:02:04.681Z,28.40
2022-11-15T09:03:04.614Z,27.70
2022-11-15T09:04:04.601Z,27.10
2022-11-15T09:05:04.592Z,26.40
2022-11-15T09:06:04.584Z,26.60
2022-11-15T09:07:04.602Z,27.80
2022-11-15T09:08:19.045Z,27.70
2022-11-15T09:09:04.556Z,26.30
2022-11-15T09:10:04.540Z,27.10
2022-11-15T09:11:04.531Z,27.10
2022-11-15T09:12:04.524Z,27.70
2022-11-15T09:13:04.515Z,28.40
2022-11-15T09:14:04.504Z,27.20
2022-11-15T09:15:04.496Z,27.50
2022-11-15T09:16:04.483Z,26.50
2022-11-15T09:17:04.474Z,27.10
2022-11-15T09:18:04.469Z,26.70
2022-11-15T09:19:08.933Z,26.80
2022-11-15T09:20:04.446Z,26.50
2022-11-15T09:21:04.438Z,26.30
2022-11-15T09:22:04.427Z,25.90
2022-11-15T09:23:04.417Z,24.90
2022-11-15T09:24:04.406Z,25.60
2022-11-15T09:25:08.526Z,26.70
2022-11-15T09:26:04.395Z,25.00
2022-11-15T09:27:04.379Z,25.10
2022-11-15T09:28:04.367Z,24.80
2022-11-15T09:29:04.358Z,25.00
2022-11-15T09:30:04.351Z,25.10
2022-11-15T09:31:04.349Z,25.30
2022-11-15T09:32:04.329Z,25.80
2022-11-15T09:33:04.320Z,25.50
2022-11-15T09:34:04.308Z,25.50
2022-11-15T09:35:04.299Z,26.20
2022-11-15T09:36:04.292Z,25.80
2022-11-15T09:37:04.283Z,24.70
2022-11-15T09:38:04.278Z,25.60
2022-11-15T09:39:04.266Z,25.70
2022-11-15T09:40:04.256Z,26.40
2022-11-15T09:41:04.245Z,24.50
2022-11-15T09:42:04.244Z,24.30
2022-11-15T09:43:04.234Z,24.20
2022-11-15T09:44:04.215Z,24.10
2022-11-15T09:45:04.203Z,24.40
2022-11-15T09:46:04.199Z,24.20
2022-11-15T09:47:04.187Z,23.60
2022-11-15T09:48:04.180Z,24.10
2022-11-15T09:49:04.170Z,22.90
2022-11-15T09:50:04.162Z,23.00
2022-11-15T09:51:04.155Z,24.70
2022-11-15T09:52:04.145Z,23.50
2022-11-15T09:53:04.132Z,23.30
2022-11-15T09:54:51.070Z,23.50
2022-11-15T09:55:04.116Z,21.80
2022-11-15T09:56:04.107Z,22.40
2022-11-15T09:57:04.182Z,22.50
2022-11-15T09:58:04.094Z,22.70
2022-11-15T09:59:04.077Z,21.80
2022-11-15T10:00:30.915Z,21.40
2022-11-15T10:01:04.096Z,22.60
2022-11-15T10:02:11.797Z,22.70
2022-11-15T10:03:04.042Z,21.60
2022-11-15T10:04:07.837Z,21.30
2022-11-15T10:05:04.017Z,21.70
2022-11-15T10:06:04.022Z,22.00
2022-11-15T10:07:04.088Z,21.30
2022-11-15T10:08:03.994Z,20.40
2022-11-15T10:09:03.991Z,19.90
2022-11-15T10:10:04.269Z,21.20
2022-11-15T10:12:03.956Z,20.10
2022-11-15T10:13:03.948Z,20.60
2022-11-15T10:14:03.942Z,21.40
2022-11-15T10:15:03.935Z,21.20
2022-11-15T10:16:03.921Z,20.70
2022-11-15T10:17:03.914Z,20.30
2022-11-15T10:18:03.902Z,20.30
2022-11-15T10:19:03.896Z,20.60
2022-11-15T10:20:05.961Z,20.40
2022-11-15T10:21:03.877Z,20.00
2022-11-15T10:22:03.875Z,19.40
2022-11-15T10:23:03.860Z,19.30
2022-11-15T10:24:03.853Z,19.50
2022-11-15T10:25:03.844Z,19.50
2022-11-15T10:26:06.804Z,19.70
2022-11-15T10:27:03.851Z,20.00
2022-11-15T10:28:03.816Z,20.10
2022-11-15T10:29:03.803Z,20.10
2022-11-15T10:30:03.802Z,20.20
2022-11-15T10:31:03.787Z,19.50
2022-11-15T10:32:03.782Z,19.60
2022-11-15T10:33:03.774Z,18.40
2022-11-15T10:34:03.764Z,18.90
2022-11-15T10:35:03.762Z,18.70
2022-11-15T10:36:03.748Z,18.70
2022-11-15T10:37:03.740Z,18.00
2022-11-15T10:38:03.729Z,17.90
2022-11-15T10:39:03.722Z,18.40
2022-11-15T10:40:03.713Z,17.80
2022-11-15T10:41:03.708Z,18.60
2022-11-15T10:42:09.558Z,17.90
2022-11-15T10:43:03.688Z,17.60
2022-11-15T10:44:03.675Z,17.90
2022-11-15T10:45:03.668Z,17.80
2022-11-15T10:46:24.653Z,17.30
2022-11-15T10:47:03.654Z,17.60
2022-11-15T10:48:03.651Z,17.50
2022-11-15T10:49:03.636Z,16.90
2022-11-15T10:50:03.630Z,18.00
2022-11-15T10:51:03.617Z,17.50
2022-11-15T10:52:03.618Z,17.90
2022-11-15T10:53:03.602Z,17.80
2022-11-15T10:54:07.772Z,18.30
2022-11-15T10:55:03.590Z,18.30
2022-11-15T10:56:03.576Z,17.60
2022-11-15T10:57:03.563Z,17.40
2022-11-15T10:58:03.560Z,18.20
2022-11-15T10:59:03.571Z,17.00
2022-11-15T11:00:03.543Z,17.00
2022-11-15T11:01:03.616Z,17.10
2022-11-15T11:02:03.529Z,17.10
2022-11-15T11:03:03.523Z,17.30
2022-11-15T11:04:03.518Z,16.70
2022-11-15T11:05:03.502Z,16.80
2022-11-15T11:06:03.495Z,17.00
2022-11-15T11:07:03.564Z,17.10
2022-11-15T11:08:03.483Z,17.10
2022-11-15T11:09:03.473Z,17.20
2022-11-15T11:10:03.645Z,17.50
2022-11-15T11:11:04.055Z,17.80
2022-11-15T11:12:03.446Z,17.30
2022-11-15T11:13:03.439Z,17.20
2022-11-15T11:14:03.430Z,17.40
2022-11-15T11:15:03.416Z,16.80
2022-11-15T11:16:03.411Z,16.90
2022-11-15T11:17:03.405Z,16.60
2022-11-15T11:18:03.402Z,16.70
2022-11-15T11:19:03.390Z,17.10
2022-11-15T11:20:03.383Z,17.00
2022-11-15T11:21:03.374Z,16.80
2022-11-15T11:22:03.384Z,17.70
2022-11-15T11:23:03.356Z,16.70
2022-11-15T11:24:03.346Z,16.70
2022-11-15T11:25:03.341Z,16.60
2022-11-15T11:26:03.335Z,16.60
2022-11-15T11:27:03.324Z,16.40
2022-11-15T11:28:03.318Z,16.60
2022-11-15T11:29:03.314Z,17.50
2022-11-15T11:30:03.303Z,17.40
2022-11-15T11:31:03.291Z,17.00
2022-11-15T11:32:03.284Z,16.90
2022-11-15T11:33:03.278Z,17.10
2022-11-15T11:34:03.271Z,17.40
2022-11-15T11:35:03.265Z,16.70
2022-11-15T11:36:03.251Z,17.20
2022-11-15T11:37:03.247Z,17.30
2022-11-15T11:38:03.242Z,17.60
2022-11-15T11:39:03.228Z,17.30
2022-11-15T11:40:09.177Z,17.50
2022-11-15T11:41:03.220Z,17.70
2022-11-15T11:42:03.212Z,16.70
2022-11-15T11:43:03.203Z,17.10
2022-11-15T11:44:03.191Z,16.80
2022-11-15T11:45:03.191Z,17.00
2022-11-15T11:46:03.177Z,16.60
2022-11-15T11:47:03.183Z,16.70
2022-11-15T11:48:03.161Z,16.90
2022-11-15T11:49:03.159Z,17.80
2022-11-15T11:50:03.190Z,17.80
2022-11-15T11:51:03.140Z,16.80
2022-11-15T11:52:03.144Z,17.10
2022-11-15T11:53:04.328Z,16.30
2022-11-15T11:54:03.117Z,17.20
2022-11-15T11:55:03.109Z,17.00
2022-11-15T11:56:03.312Z,16.60
2022-11-15T11:57:03.100Z,17.10
2022-11-15T11:58:03.087Z,16.50
2022-11-15T11:59:03.076Z,16.80
2022-11-15T12:00:03.070Z,17.20
2022-11-15T12:01:03.063Z,16.80
2022-11-15T12:02:03.124Z,17.20
2022-11-15T12:03:03.123Z,16.60
2022-11-15T12:04:03.040Z,17.60
2022-11-15T12:05:03.034Z,16.90
2022-11-15T12:06:03.031Z,16.60
2022-11-15T12:07:03.064Z,16.30
2022-11-15T12:08:04.265Z,16.70
2022-11-15T12:09:03.003Z,17.10
2022-11-15T12:10:03.001Z,16.70
2022-11-15T12:11:02.985Z,16.90
2022-11-15T12:12:02.984Z,16.50
2022-11-15T12:13:02.978Z,16.50
2022-11-15T12:14:02.967Z,17.00
2022-11-15T12:15:02.960Z,16.90
2022-11-15T12:16:06.166Z,16.70
2022-11-15T12:17:02.943Z,17.10
2022-11-15T12:18:02.955Z,17.00
2022-11-15T12:19:02.930Z,17.10
2022-11-15T12:20:03.027Z,17.40
2022-11-15T12:21:02.915Z,17.70
2022-11-15T12:22:02.906Z,17.70
2022-11-15T12:23:02.901Z,17.50
2022-11-15T12:24:02.927Z,17.30
2022-11-15T12:25:02.906Z,16.30
2022-11-15T12:26:02.876Z,16.80
2022-11-15T12:27:02.875Z,17.00
2022-11-15T12:28:02.915Z,17.70
2022-11-15T12:29:08.083Z,17.10
2022-11-15T12:30:02.868Z,16.80
2022-11-15T12:31:02.848Z,16.70
2022-11-15T12:32:02.838Z,17.10
2022-11-15T12:33:02.838Z,16.90
2022-11-15T12:34:07.054Z,16.70
2022-11-15T12:35:02.812Z,16.30
2022-11-15T12:36:02.806Z,16.80
2022-11-15T12:37:02.817Z,16.90
2022-11-15T12:38:02.792Z,17.00
2022-11-15T12:39:02.797Z,17.10
2022-11-15T12:40:04.295Z,17.00
2022-11-15T12:41:02.769Z,17.20
2022-11-15T12:42:02.762Z,17.00
2022-11-15T12:43:02.758Z,16.70
2022-11-15T12:44:02.825Z,16.70
2022-11-15T12:45:02.737Z,16.50
2022-11-15T12:46:02.740Z,16.90
2022-11-15T12:47:02.831Z,16.80
2022-11-15T12:48:02.720Z,16.50
2022-11-15T12:49:02.712Z,16.90
2022-11-15T12:50:02.796Z,16.00
2022-11-15T12:51:02.700Z,16.50
2022-11-15T12:52:02.694Z,17.00
2022-11-15T12:53:02.685Z,16.70